createdAt,value
2018-06-30T00:00:19.925Z,18.20
2018-06-30T00:03:08.784Z,18.10
2018-06-30T00:05:43.206Z,18.00
2018-06-30T00:08:25.921Z,18.00
2018-06-30T00:13:54.019Z,17.80
2018-06-30T00:16:32.957Z,17.80
2018-06-30T00:19:18.621Z,17.70
2018-06-30T00:21:53.763Z,17.60
2018-06-30T00:24:39.857Z,17.60
2018-06-30T00:27:24.286Z,17.50
2018-06-30T00:30:05.606Z,17.40
2018-06-30T00:32:43.538Z,17.30
2018-06-30T00:35:19.045Z,17.30
2018-06-30T00:37:53.643Z,17.20
2018-06-30T00:40:31.061Z,17.20
2018-06-30T00:43:05.276Z,17.10
2018-06-30T00:45:44.957Z,17.10
2018-06-30T00:48:18.438Z,17.00
2018-06-30T00:50:52.123Z,16.90
2018-06-30T00:53:28.285Z,16.90
2018-06-30T00:56:02.818Z,16.80
2018-06-30T00:58:44.533Z,16.80
2018-06-30T01:01:22.812Z,16.70
2018-06-30T01:03:58.564Z,16.70
2018-06-30T01:06:41.557Z,16.60
2018-06-30T01:09:19.796Z,16.60
2018-06-30T01:11:57.289Z,16.50
2018-06-30T01:14:38.328Z,16.50
2018-06-30T01:17:10.299Z,16.50
2018-06-30T01:19:48.026Z,16.40
2018-06-30T01:22:25.848Z,16.30
2018-06-30T01:25:08.035Z,16.30
2018-06-30T01:27:42.348Z,16.20
2018-06-30T01:30:14.560Z,16.20
2018-06-30T01:35:45.558Z,16.10
2018-06-30T01:38:14.052Z,16.10
2018-06-30T01:40:42.664Z,16.00
2018-06-30T01:43:11.241Z,16.00
2018-06-30T01:45:40.702Z,15.90
2018-06-30T01:48:09.253Z,15.90
2018-06-30T01:50:37.917Z,15.90
2018-06-30T01:53:06.450Z,15.80
2018-06-30T01:55:34.946Z,15.80
2018-06-30T01:58:03.469Z,15.70
2018-06-30T02:00:32.036Z,15.70
2018-06-30T02:03:01.697Z,15.60
2018-06-30T02:05:30.208Z,15.60
2018-06-30T02:07:58.638Z,15.50
2018-06-30T02:10:27.177Z,15.50
2018-06-30T02:12:55.645Z,15.40
2018-06-30T02:15:24.064Z,15.40
2018-06-30T02:17:52.705Z,15.30
2018-06-30T02:20:21.182Z,15.30
2018-06-30T02:22:49.837Z,15.30
2018-06-30T02:25:18.501Z,15.20
2018-06-30T02:27:47.384Z,15.20
2018-06-30T02:30:15.814Z,15.10
2018-06-30T02:32:44.328Z,15.10
2018-06-30T02:35:12.870Z,15.00
2018-06-30T02:37:41.488Z,15.00
2018-06-30T02:40:10.066Z,15.00
2018-06-30T02:42:38.662Z,14.90
2018-06-30T02:45:07.185Z,14.90
2018-06-30T02:47:35.725Z,14.80
2018-06-30T02:50:04.652Z,14.80
2018-06-30T02:52:33.288Z,14.70
2018-06-30T02:55:02.296Z,14.70
2018-06-30T02:57:30.848Z,14.70
2018-06-30T02:59:59.374Z,14.60
2018-06-30T03:02:28.005Z,14.60
2018-06-30T03:04:56.556Z,14.50
2018-06-30T03:07:25.216Z,14.50
2018-06-30T03:09:53.689Z,14.50
2018-06-30T03:12:22.226Z,14.40
2018-06-30T03:14:50.812Z,14.40
2018-06-30T03:17:19.232Z,14.30
2018-06-30T03:19:47.605Z,14.30
2018-06-30T03:22:16.113Z,14.30
2018-06-30T03:24:44.521Z,14.30
2018-06-30T03:27:13.008Z,14.20
2018-06-30T03:29:42.954Z,14.20
2018-06-30T03:32:11.433Z,14.20
2018-06-30T03:34:40.082Z,14.20
2018-06-30T03:37:08.669Z,14.20
2018-06-30T03:39:36.976Z,14.20
2018-06-30T03:42:05.410Z,14.20
2018-06-30T03:44:33.714Z,14.20
2018-06-30T03:47:02.104Z,14.20
2018-06-30T03:49:30.729Z,14.30
2018-06-30T03:51:59.208Z,14.40
2018-06-30T03:54:27.645Z,14.40
2018-06-30T03:56:56.235Z,14.50
2018-06-30T03:59:24.742Z,14.60
2018-06-30T04:01:53.702Z,14.70
2018-06-30T04:04:22.276Z,14.80
2018-06-30T04:06:51.591Z,14.80
2018-06-30T04:09:20.070Z,14.90
2018-06-30T04:11:48.659Z,15.00
2018-06-30T04:14:17.109Z,15.10
2018-06-30T04:16:45.909Z,15.20
2018-06-30T04:19:18.282Z,15.30
2018-06-30T04:21:47.777Z,15.50
2018-06-30T04:24:16.293Z,15.60
2018-06-30T04:26:45.000Z,15.80
2018-06-30T04:29:14.393Z,15.90
2018-06-30T04:34:10.980Z,16.30
2018-06-30T04:36:39.498Z,16.60
2018-06-30T04:39:09.445Z,16.80
2018-06-30T04:41:37.944Z,17.10
2018-06-30T04:44:06.658Z,17.30
2018-06-30T04:46:35.248Z,17.70
2018-06-30T04:49:03.760Z,17.90
2018-06-30T04:51:32.336Z,18.00
2018-06-30T04:54:00.788Z,18.20
2018-06-30T04:56:29.225Z,18.50
2018-06-30T04:58:57.830Z,18.80
2018-06-30T05:01:26.754Z,19.10
2018-06-30T05:03:55.379Z,19.30
2018-06-30T05:06:23.797Z,19.40
2018-06-30T05:08:52.294Z,19.70
2018-06-30T05:11:20.838Z,20.30
2018-06-30T05:13:49.389Z,20.50
2018-06-30T05:16:17.836Z,20.70
2018-06-30T05:18:46.289Z,21.20
2018-06-30T05:21:14.747Z,21.80
2018-06-30T05:23:43.360Z,21.80
2018-06-30T05:26:12.069Z,22.20
2018-06-30T05:28:40.606Z,22.70
2018-06-30T05:31:09.074Z,23.20
2018-06-30T05:33:37.665Z,22.90
2018-06-30T05:36:06.147Z,23.00
2018-06-30T05:38:34.571Z,23.00
2018-06-30T05:43:30.778Z,23.80
2018-06-30T05:48:27.286Z,24.60
2018-06-30T05:50:55.781Z,25.30
2018-06-30T05:53:24.301Z,25.40
2018-06-30T05:55:52.708Z,25.40
2018-06-30T05:58:21.044Z,25.80
2018-06-30T06:00:49.740Z,26.00
2018-06-30T06:03:18.293Z,26.30
2018-06-30T06:05:46.799Z,26.00
2018-06-30T06:10:44.265Z,26.50
2018-06-30T06:13:14.341Z,27.10
2018-06-30T06:15:44.692Z,27.30
2018-06-30T06:18:13.147Z,28.10
2018-06-30T06:20:41.747Z,27.90
2018-06-30T06:23:10.275Z,28.50
2018-06-30T06:25:38.819Z,28.30
2018-06-30T06:28:07.811Z,28.20
2018-06-30T06:30:37.449Z,28.60
2018-06-30T06:33:05.938Z,29.30
2018-06-30T06:35:34.421Z,29.40
2018-06-30T06:38:02.901Z,30.10
2018-06-30T06:40:31.363Z,30.60
2018-06-30T06:43:00.034Z,30.80
2018-06-30T06:45:28.630Z,31.50
2018-06-30T06:47:57.113Z,31.30
2018-06-30T06:50:25.707Z,30.90
2018-06-30T06:52:54.188Z,31.40
2018-06-30T06:55:22.786Z,31.10
2018-06-30T06:57:51.276Z,30.90
2018-06-30T07:00:19.752Z,31.30
2018-06-30T07:02:48.230Z,32.30
2018-06-30T07:05:16.919Z,32.70
2018-06-30T07:07:47.359Z,32.10
2018-06-30T07:10:16.017Z,32.20
2018-06-30T07:12:44.978Z,32.20
2018-06-30T07:15:13.795Z,32.50
2018-06-30T07:17:42.388Z,32.80
2018-06-30T07:20:10.890Z,33.40
2018-06-30T07:22:44.646Z,33.50
2018-06-30T07:25:13.242Z,33.70
2018-06-30T07:27:41.928Z,34.10
2018-06-30T07:30:10.621Z,34.80
2018-06-30T07:32:40.430Z,34.20
2018-06-30T07:35:09.101Z,34.20
2018-06-30T07:37:37.573Z,34.50
2018-06-30T07:40:06.336Z,34.90
2018-06-30T07:42:35.035Z,35.70
2018-06-30T07:45:07.018Z,36.10
2018-06-30T07:47:35.777Z,35.70
2018-06-30T07:50:04.445Z,35.30
2018-06-30T07:52:32.930Z,35.10
2018-06-30T07:55:01.818Z,35.30
2018-06-30T07:57:30.450Z,35.90
2018-06-30T07:59:58.892Z,36.00
2018-06-30T08:02:27.286Z,36.40
2018-06-30T08:04:55.730Z,36.10
2018-06-30T08:07:24.364Z,36.00
2018-06-30T08:09:52.835Z,35.90
2018-06-30T08:12:21.561Z,35.90
2018-06-30T08:14:50.002Z,35.80
2018-06-30T08:17:18.442Z,35.90
2018-06-30T08:19:46.831Z,36.00
2018-06-30T08:22:15.245Z,36.10
2018-06-30T08:24:43.633Z,36.20
2018-06-30T08:27:12.036Z,36.50
2018-06-30T08:29:40.684Z,36.70
2018-06-30T08:32:09.196Z,36.80
2018-06-30T08:34:37.618Z,37.20
2018-06-30T08:37:06.142Z,37.80
2018-06-30T08:39:34.474Z,37.00
2018-06-30T08:42:03.119Z,36.70
2018-06-30T08:44:31.453Z,36.70
2018-06-30T08:49:27.555Z,37.50
2018-06-30T08:52:07.851Z,37.50
2018-06-30T08:54:36.304Z,38.30
2018-06-30T08:57:04.718Z,38.10
2018-06-30T08:59:33.173Z,39.00
2018-06-30T09:02:01.600Z,38.90
2018-06-30T09:04:30.136Z,38.50
2018-06-30T09:06:58.613Z,38.30
2018-06-30T09:09:27.016Z,38.80
2018-06-30T09:11:55.493Z,38.70
2018-06-30T09:14:24.029Z,39.50
2018-06-30T09:16:52.490Z,39.00
2018-06-30T09:19:20.932Z,38.70
2018-06-30T09:21:49.361Z,38.60
2018-06-30T09:24:17.994Z,39.60
2018-06-30T09:26:46.465Z,39.20
2018-06-30T09:29:14.969Z,38.90
2018-06-30T09:31:43.413Z,39.20
2018-06-30T09:34:11.853Z,39.60
2018-06-30T09:36:40.360Z,39.40
2018-06-30T09:39:10.329Z,39.40
2018-06-30T09:41:38.759Z,39.30
2018-06-30T09:44:07.817Z,39.20
2018-06-30T09:46:36.385Z,39.50
2018-06-30T09:49:05.100Z,39.50
2018-06-30T09:51:33.692Z,39.20
2018-06-30T09:54:02.141Z,39.20
2018-06-30T09:56:30.716Z,39.10
2018-06-30T09:58:59.245Z,39.10
2018-06-30T10:01:27.747Z,39.30
2018-06-30T10:03:56.259Z,39.40
2018-06-30T10:06:25.809Z,38.90
2018-06-30T10:08:54.364Z,39.10
2018-06-30T10:11:22.774Z,39.10
2018-06-30T10:13:51.176Z,38.80
2018-06-30T10:16:19.624Z,39.00
2018-06-30T10:18:48.512Z,39.20
2018-06-30T10:21:16.877Z,39.50
2018-06-30T10:23:45.279Z,39.80
2018-06-30T10:26:13.668Z,39.60
2018-06-30T10:28:42.125Z,39.40
2018-06-30T10:31:10.523Z,39.80
2018-06-30T10:33:39.013Z,39.80
2018-06-30T10:36:07.604Z,39.80
2018-06-30T10:38:36.095Z,39.70
2018-06-30T10:41:04.730Z,39.40
2018-06-30T10:43:33.188Z,39.30
2018-06-30T10:46:01.789Z,39.30
2018-06-30T10:48:30.164Z,39.20
2018-06-30T10:50:58.629Z,39.50
2018-06-30T10:53:27.156Z,39.80
2018-06-30T10:55:55.579Z,39.80
2018-06-30T10:58:24.373Z,39.70
2018-06-30T11:00:52.776Z,39.70
2018-06-30T11:03:21.180Z,39.50
2018-06-30T11:05:52.770Z,39.50
2018-06-30T11:08:21.768Z,39.70
2018-06-30T11:10:50.432Z,39.60
2018-06-30T11:13:18.998Z,39.60
2018-06-30T11:15:56.312Z,39.70
2018-06-30T11:18:24.721Z,39.40
2018-06-30T11:20:53.256Z,38.80
2018-06-30T11:23:21.641Z,38.80
2018-06-30T11:25:50.104Z,38.90
2018-06-30T11:28:18.544Z,38.70
2018-06-30T11:30:46.985Z,38.40
2018-06-30T11:33:15.360Z,38.20
2018-06-30T11:35:43.900Z,38.30
2018-06-30T11:38:12.348Z,38.00
2018-06-30T11:40:40.811Z,38.20
2018-06-30T11:43:09.269Z,38.60
2018-06-30T11:45:37.685Z,38.50
2018-06-30T11:48:06.113Z,38.70
2018-06-30T11:50:34.561Z,38.70
2018-06-30T11:55:30.957Z,38.40
2018-06-30T11:57:59.351Z,38.00
2018-06-30T12:00:27.892Z,38.70
2018-06-30T12:02:56.537Z,39.00
2018-06-30T12:05:25.595Z,39.20
2018-06-30T12:07:54.045Z,39.20
2018-06-30T12:10:26.097Z,39.20
2018-06-30T12:12:54.570Z,39.50
2018-06-30T12:15:23.035Z,39.20
2018-06-30T12:17:52.069Z,39.10
2018-06-30T12:20:20.486Z,38.20
2018-06-30T12:22:49.062Z,37.90
2018-06-30T12:25:17.817Z,38.10
2018-06-30T12:27:46.255Z,37.60
2018-06-30T12:30:14.729Z,37.90
2018-06-30T12:32:43.308Z,36.90
2018-06-30T12:35:11.875Z,37.00
2018-06-30T12:37:40.300Z,37.50
2018-06-30T12:40:08.729Z,37.60
2018-06-30T12:42:37.746Z,37.80
2018-06-30T12:45:06.321Z,38.40
2018-06-30T12:47:34.900Z,38.10
2018-06-30T12:50:03.337Z,36.80
2018-06-30T12:52:31.821Z,35.90
2018-06-30T12:55:00.484Z,36.30
2018-06-30T12:57:28.907Z,36.80
2018-06-30T12:59:57.313Z,36.40
2018-06-30T13:02:27.060Z,36.50
2018-06-30T13:04:55.680Z,37.40
2018-06-30T13:07:24.321Z,37.50
2018-06-30T13:09:52.952Z,38.20
2018-06-30T13:12:21.452Z,37.80
2018-06-30T13:14:55.084Z,36.80
2018-06-30T13:17:23.564Z,35.20
2018-06-30T13:19:52.060Z,35.50
2018-06-30T13:22:20.532Z,36.50
2018-06-30T13:24:49.052Z,37.70
2018-06-30T13:27:17.789Z,38.20
2018-06-30T13:29:46.184Z,37.60
2018-06-30T13:32:14.636Z,37.10
2018-06-30T13:34:46.672Z,35.90
2018-06-30T13:37:15.209Z,36.30
2018-06-30T13:42:48.928Z,36.10
2018-06-30T13:45:17.536Z,37.00
2018-06-30T13:47:45.973Z,36.30
2018-06-30T13:50:14.435Z,36.20
2018-06-30T13:52:42.969Z,35.50
2018-06-30T13:55:11.397Z,36.80
2018-06-30T13:57:39.844Z,37.90
2018-06-30T14:00:11.812Z,37.60
2018-06-30T14:02:40.583Z,36.10
2018-06-30T14:05:09.496Z,37.30
2018-06-30T14:07:38.060Z,36.10
2018-06-30T14:10:07.152Z,37.10
2018-06-30T14:12:35.637Z,37.30
2018-06-30T14:15:05.769Z,36.90
2018-06-30T14:17:34.368Z,36.90
2018-06-30T14:20:02.957Z,37.40
2018-06-30T14:22:31.334Z,37.10
2018-06-30T14:24:59.761Z,36.80
2018-06-30T14:27:28.226Z,37.30
2018-06-30T14:29:59.735Z,37.00
2018-06-30T14:32:29.176Z,36.60
2018-06-30T14:34:57.804Z,36.20
2018-06-30T14:37:26.289Z,37.30
2018-06-30T14:39:54.743Z,37.80
2018-06-30T14:42:23.224Z,37.80
2018-06-30T14:44:51.758Z,37.10
2018-06-30T14:47:20.341Z,37.70
2018-06-30T14:49:48.749Z,38.50
2018-06-30T14:52:17.222Z,38.40
2018-06-30T14:54:45.645Z,38.90
2018-06-30T14:57:14.112Z,36.40
2018-06-30T14:59:42.608Z,36.20
2018-06-30T15:02:11.484Z,36.80
2018-06-30T15:04:40.049Z,37.50
2018-06-30T15:07:08.509Z,37.30
2018-06-30T15:09:36.964Z,37.60
2018-06-30T15:12:05.370Z,36.90
2018-06-30T15:14:33.879Z,36.70
2018-06-30T15:17:02.424Z,36.20
2018-06-30T15:19:30.906Z,35.80
2018-06-30T15:21:59.344Z,36.10
2018-06-30T15:24:27.840Z,36.60
2018-06-30T15:26:56.262Z,37.50
2018-06-30T15:29:24.705Z,37.20
2018-06-30T15:31:53.263Z,37.20
2018-06-30T15:34:21.840Z,36.90
2018-06-30T15:36:50.408Z,36.60
2018-06-30T15:39:18.844Z,35.10
2018-06-30T15:41:47.186Z,36.10
2018-06-30T15:44:15.812Z,36.90
2018-06-30T15:46:44.339Z,36.20
2018-06-30T15:49:12.832Z,36.30
2018-06-30T15:51:41.268Z,36.20
2018-06-30T15:54:09.794Z,36.70
2018-06-30T15:56:40.361Z,35.40
2018-06-30T15:59:08.982Z,36.20
2018-06-30T16:01:37.576Z,36.40
2018-06-30T16:04:06.257Z,35.90
2018-06-30T16:06:34.758Z,34.00
2018-06-30T16:09:03.461Z,34.30
2018-06-30T16:11:31.896Z,34.20
2018-06-30T16:14:00.215Z,34.00
2018-06-30T16:16:28.497Z,35.40
2018-06-30T16:18:56.779Z,35.10
2018-06-30T16:23:52.882Z,35.70
2018-06-30T16:26:21.388Z,35.70
2018-06-30T16:28:49.896Z,34.20
2018-06-30T16:31:18.291Z,32.10
2018-06-30T16:33:46.691Z,34.00
2018-06-30T16:36:15.181Z,34.80
2018-06-30T16:38:43.528Z,34.40
2018-06-30T16:41:11.984Z,34.70
2018-06-30T16:43:40.980Z,35.70
2018-06-30T16:46:09.401Z,36.00
2018-06-30T16:48:37.908Z,35.80
2018-06-30T16:51:06.202Z,35.30
2018-06-30T16:53:34.463Z,35.90
2018-06-30T16:56:02.960Z,36.10
2018-06-30T16:58:31.431Z,35.30
2018-06-30T17:01:00.132Z,35.00
2018-06-30T17:03:29.531Z,35.00
2018-06-30T17:05:58.135Z,34.50
2018-06-30T17:08:26.637Z,34.30
2018-06-30T17:10:55.968Z,33.70
2018-06-30T17:13:24.405Z,34.70
2018-06-30T17:15:52.853Z,34.10
2018-06-30T17:18:21.300Z,34.10
2018-06-30T17:20:49.734Z,35.10
2018-06-30T17:23:18.280Z,35.80
2018-06-30T17:25:46.691Z,35.70
2018-06-30T17:28:15.106Z,34.70
2018-06-30T17:30:43.514Z,34.20
2018-06-30T17:33:12.023Z,34.50
2018-06-30T17:35:40.419Z,33.70
2018-06-30T17:38:08.781Z,34.00
2018-06-30T17:40:37.208Z,33.70
2018-06-30T17:43:05.952Z,33.70
2018-06-30T17:45:34.409Z,34.10
2018-06-30T17:48:03.025Z,34.20
2018-06-30T17:50:31.476Z,34.10
2018-06-30T17:52:59.889Z,34.20
2018-06-30T17:55:28.292Z,32.90
2018-06-30T17:57:56.741Z,33.20
2018-06-30T18:00:25.263Z,32.90
2018-06-30T18:02:57.828Z,32.90
2018-06-30T18:07:56.540Z,33.20
2018-06-30T18:10:25.231Z,32.70
2018-06-30T18:12:53.826Z,33.10
2018-06-30T18:15:22.246Z,33.10
2018-06-30T18:17:50.722Z,32.60
2018-06-30T18:20:20.257Z,33.10
2018-06-30T18:22:50.046Z,33.20
2018-06-30T18:25:18.625Z,33.10
2018-06-30T18:27:47.272Z,33.00
2018-06-30T18:30:15.913Z,32.90
2018-06-30T18:32:44.400Z,32.70
2018-06-30T18:35:19.773Z,32.90
2018-06-30T18:37:48.265Z,33.10
2018-06-30T18:40:16.706Z,32.90
2018-06-30T18:42:45.140Z,33.10
2018-06-30T18:45:13.613Z,33.00
2018-06-30T18:47:42.093Z,33.20
2018-06-30T18:50:10.701Z,33.20
2018-06-30T18:52:39.261Z,32.70
2018-06-30T18:55:07.693Z,32.60
2018-06-30T18:57:37.319Z,32.30
2018-06-30T19:00:07.225Z,32.40
2018-06-30T19:02:36.013Z,32.30
2018-06-30T19:05:04.817Z,32.40
2018-06-30T19:07:33.464Z,32.40
2018-06-30T19:10:01.925Z,32.20
2018-06-30T19:12:31.469Z,31.90
2018-06-30T19:15:00.225Z,31.80
2018-06-30T19:17:28.878Z,31.50
2018-06-30T19:19:57.260Z,31.40
2018-06-30T19:22:25.808Z,31.50
2018-06-30T19:24:54.336Z,31.30
2018-06-30T19:27:22.788Z,31.10
2018-06-30T19:29:51.285Z,31.10
2018-06-30T19:32:19.749Z,30.90
2018-06-30T19:34:48.393Z,30.80
2018-06-30T19:37:16.893Z,30.60
2018-06-30T19:39:45.285Z,30.50
2018-06-30T19:42:13.913Z,30.30
2018-06-30T19:44:43.375Z,30.20
2018-06-30T19:47:11.916Z,30.10
2018-06-30T19:49:40.437Z,29.90
2018-06-30T19:52:08.912Z,29.80
2018-06-30T19:54:37.431Z,29.50
2018-06-30T19:57:06.177Z,29.40
2018-06-30T19:59:34.644Z,29.20
2018-06-30T20:02:03.176Z,29.00
2018-06-30T20:04:31.602Z,28.80
2018-06-30T20:07:00.229Z,28.60
2018-06-30T20:09:28.697Z,28.40
2018-06-30T20:11:57.338Z,28.30
2018-06-30T20:14:27.856Z,28.10
2018-06-30T20:16:56.240Z,28.00
2018-06-30T20:19:24.710Z,27.90
2018-06-30T20:21:53.185Z,27.70
2018-06-30T20:24:21.612Z,27.60
2018-06-30T20:26:50.441Z,27.40
2018-06-30T20:29:19.072Z,27.30
2018-06-30T20:31:47.635Z,27.10
2018-06-30T20:34:16.086Z,27.00
2018-06-30T20:36:50.441Z,26.80
2018-06-30T20:39:18.714Z,26.60
2018-06-30T20:41:47.010Z,26.50
2018-06-30T20:44:18.800Z,26.30
2018-06-30T20:46:47.400Z,26.20
2018-06-30T20:49:15.796Z,26.10
2018-06-30T20:51:44.217Z,25.90
2018-06-30T20:54:12.718Z,25.80
2018-06-30T20:56:41.519Z,25.70
2018-06-30T20:59:10.087Z,25.60
2018-06-30T21:01:38.676Z,25.50
2018-06-30T21:04:07.100Z,25.30
2018-06-30T21:06:35.496Z,25.20
2018-06-30T21:09:06.133Z,25.10
2018-06-30T21:11:34.537Z,25.00
2018-06-30T21:14:03.106Z,24.90
2018-06-30T21:16:31.524Z,24.80
2018-06-30T21:19:00.062Z,24.70
2018-06-30T21:21:28.689Z,24.50
2018-06-30T21:23:57.209Z,24.40
2018-06-30T21:26:25.823Z,24.30
2018-06-30T21:28:54.331Z,24.10
2018-06-30T21:31:22.761Z,24.00
2018-06-30T21:33:51.264Z,24.00
2018-06-30T21:36:19.780Z,23.80
2018-06-30T21:38:48.297Z,23.60
2018-06-30T21:43:44.458Z,23.20
2018-06-30T21:46:12.824Z,23.20
2018-06-30T21:48:41.220Z,23.10
2018-06-30T21:51:09.973Z,23.00
2018-06-30T21:53:38.388Z,22.90
2018-06-30T21:56:07.073Z,22.80
2018-06-30T21:58:38.581Z,22.70
2018-06-30T22:01:12.205Z,22.70
2018-06-30T22:03:40.604Z,22.60
2018-06-30T22:06:09.070Z,22.60
2018-06-30T22:08:37.609Z,22.50
2018-06-30T22:11:06.165Z,22.40
2018-06-30T22:13:34.730Z,22.40
2018-06-30T22:16:03.381Z,22.40
2018-06-30T22:18:31.969Z,22.30
2018-06-30T22:21:00.518Z,22.20
2018-06-30T22:23:28.868Z,22.10
2018-06-30T22:25:57.457Z,22.10
2018-06-30T22:28:25.837Z,22.00
2018-06-30T22:30:54.273Z,21.90
2018-06-30T22:33:22.768Z,21.80
2018-06-30T22:35:51.223Z,21.70
2018-06-30T22:38:19.611Z,21.70
2018-06-30T22:40:48.164Z,21.60
2018-06-30T22:43:16.751Z,21.50
2018-06-30T22:45:45.268Z,21.50
2018-06-30T22:48:13.664Z,21.40
2018-06-30T22:50:42.220Z,21.40
2018-06-30T22:53:10.751Z,21.40
2018-06-30T22:55:39.210Z,21.30
2018-06-30T22:58:07.717Z,21.20
2018-06-30T23:00:36.297Z,21.10
2018-06-30T23:03:09.981Z,21.00
2018-06-30T23:05:39.072Z,20.90
2018-06-30T23:08:07.556Z,20.90
2018-06-30T23:10:35.892Z,20.90
2018-06-30T23:13:04.606Z,20.80
2018-06-30T23:15:32.945Z,20.70
2018-06-30T23:18:01.485Z,20.60
2018-06-30T23:20:30.436Z,20.40
2018-06-30T23:23:01.393Z,20.40
2018-06-30T23:25:30.984Z,20.40
2018-06-30T23:28:00.157Z,20.30
2018-06-30T23:30:29.533Z,20.30
2018-06-30T23:32:58.113Z,20.20
2018-06-30T23:35:27.725Z,20.20
2018-06-30T23:37:57.118Z,20.10
2018-06-30T23:40:25.626Z,20.00
2018-06-30T23:42:54.082Z,20.00
2018-06-30T23:45:22.896Z,19.90
2018-06-30T23:47:52.005Z,19.90
2018-06-30T23:50:20.888Z,19.80
2018-06-30T23:52:49.264Z,19.80
2018-06-30T23:55:17.865Z,19.70
2018-06-30T23:57:46.456Z,19.70
